Cape Henlopen — WM5958 — position and weather

sailwx.info

Track history (hours):
 
Tides and Currents Weather Stations Pressure Air Temp Water Temp Dewpoint Dewpoint Depression Visibility Wind Speed Wind Dir Waves Ship Positions

Cape Henlopen

Owner: CROSS SOUND FERRY SERV INC, NEW LONDON, CT. More information available from US FCC via Universal Licensing System and Coast Guard Vessel Documentation Center.

Last reported at 2017-Dec-18 02:51 UTC. Time now 2017-Dec-18 05:15 UTC.
Position N 41°18' W 072°05'.

Length 94 m; draft 2.7 m.

Type: Passenger vessel. MMSI: 367354360.

Date/timePositionNaut miles runAvg speedWind from/ knotsBaromVisibWave heightAir tempDewpointWater temp
2017-Dec-18 02:51N 41°18' W 072°05'411.8
2017-Dec-18 02:30N 41°15' W 072°09'511.0
2017-Dec-18 02:01N 41°11' W 072°13'2 2.9
2017-Dec-18 01:29N 41°09' W 072°14'3 5.7
2017-Dec-18 01:00N 41°12' W 072°13'8 4.0
2017-Dec-17 23:03N 41°17' W 072°06'011.0
2017-Dec-17 23:00N 41°17' W 072°06'611.6
2017-Dec-17 22:30N 41°13' W 072°11'4 7.1
2017-Dec-17 21:55N 41°09' W 072°14'1 1.2
2017-Dec-17 21:19N 41°09' W 072°13'3 9.9
2017-Dec-17 21:00N 41°12' W 072°12'7 3.5
2017-Dec-17 18:58N 41°17' W 072°05'613.3
2017-Dec-17 18:29N 41°12' W 072°11'4 8.5
2017-Dec-17 18:01N 41°09' W 072°14'0 0.7
2017-Dec-17 17:23N 41°09' W 072°14'4 9.9
2017-Dec-17 16:59N 41°13' W 072°12'7 3.9
2017-Dec-17 15:07N 41°18' W 072°05'211.7
2017-Dec-17 15:00N 41°17' W 072°06'611.6
2017-Dec-17 14:31N 41°13' W 072°11'4 3.5
2017-Dec-17 13:18N 41°09' W 072°14'3 9.1
2017-Dec-17 13:01N 41°12' W 072°13'9 0.7
2017-Dec-17 00:13N 41°18' W 072°05'311.2
2017-Dec-16 23:56N 41°15' W 072°08'511.0
2017-Dec-16 23:30N 41°12' W 072°12'3 6.9
2017-Dec-16 23:00N 41°09' W 072°14'0 0.8
2017-Dec-16 22:25N 41°09' W 072°14'3 8.1
2017-Dec-16 22:00N 41°12' W 072°12'7 3.2
2017-Dec-16 19:58N 41°17' W 072°06'613.2
2017-Dec-16 19:30N 41°13' W 072°12'4 7.3
2017-Dec-16 18:58N 41°09' W 072°14'1 2.3
2017-Dec-16 18:30N 41°10' W 072°13'4 7.6
2017-Dec-16 17:58N 41°13' W 072°10'5 2.7
2017-Dec-16 16:06N 41°17' W 072°06'212.7
2017-Dec-16 15:57N 41°16' W 072°07'612.5
2017-Dec-16 15:30N 41°12' W 072°13'3 2.8
2017-Dec-16 14:35N 41°09' W 072°12'411.3
2017-Dec-16 14:13N 41°11' W 072°07'210.0
2017-Dec-16 14:00N 41°13' W 072°06'4 8.2
2017-Dec-16 13:30N 41°17' W 072°06'2 0.2
2017-Dec-16 02:00N 41°19' W 072°05'611.4
2017-Dec-16 01:28N 41°14' W 072°10'510.0
2017-Dec-16 01:00N 41°10' W 072°13'1 1.4
2017-Dec-16 00:16N 41°09' W 072°13'3 9.7
2017-Dec-16 00:00N 41°12' W 072°13'9 5.3
2017-Dec-15 22:13N 41°19' W 072°05'211.1
2017-Dec-15 22:00N 41°17' W 072°06'611.5
2017-Dec-15 21:30N 41°12' W 072°11'3 2.6
2017-Dec-15 20:18N 41°10' W 072°13'3 9.6
2017-Dec-15 19:59N 41°12' W 072°12'7 3.8
2017-Dec-15 18:02N 41°18' W 072°05'111.7
2017-Dec-15 17:57N 41°17' W 072°06'713.5
2017-Dec-15 17:27N 41°12' W 072°12'3 2.9
2017-Dec-15 16:25N 41°09' W 072°13'4 9.3
2017-Dec-15 15:59N 41°13' W 072°11'3 1.5
2017-Dec-15 13:52N 41°15' W 072°08'411.9
2017-Dec-15 13:30N 41°12' W 072°12'4 6.4
2017-Dec-15 12:56N 41°09' W 072°14'0 0.0
2017-Dec-15 12:30N 41°09' W 072°14'1 0.1
2017-Dec-15 02:06N 41°09' W 072°13'11 5.7
2017-Dec-15 00:13N 41°18' W 072°05'11 1.9
2017-Dec-14 18:20N 41°09' W 072°14'3 9.5
2017-Dec-14 18:00N 41°12' W 072°12'7 3.4
2017-Dec-14 15:59N 41°17' W 072°05'10 6.0
2017-Dec-14 14:20N 41°09' W 072°14'510.1
2017-Dec-14 13:53N 41°13' W 072°11'4 0.3
2017-Dec-14 00:00N 41°15' W 072°07'2 0.4
2017-Dec-13 20:09N 41°17' W 072°06'411.9
2017-Dec-13 19:49N 41°14' W 072°10'1 0.3
2017-Dec-13 15:45N 41°14' W 072°09'313.8
2017-Dec-13 15:30N 41°12' W 072°12'8 0.5
2017-Dec-13 00:09N 41°18' W 072°05'312.0
2017-Dec-12 23:53N 41°16' W 072°08'411.3
2017-Dec-12 23:29N 41°12' W 072°12'2 1.7
2017-Dec-12 22:09N 41°11' W 072°14'212.7
2017-Dec-12 21:59N 41°12' W 072°12'8 4.1
2017-Dec-12 20:09N 41°18' W 072°05'211.4
2017-Dec-12 20:00N 41°16' W 072°06'611.5
2017-Dec-12 19:30N 41°12' W 072°12'3 3.0
2017-Dec-12 18:23N 41°09' W 072°14'4 9.5
2017-Dec-12 17:57N 41°13' W 072°11'6 2.8
2017-Dec-12 15:56N 41°17' W 072°06'613.5
2017-Dec-12 15:31N 41°13' W 072°11'4 3.3
2017-Dec-12 14:24N 41°09' W 072°13'4 9.1
2017-Dec-12 14:00N 41°13' W 072°11'7 0.5
2017-Dec-12 00:07N 41°18' W 072°05'212.5
2017-Dec-11 23:59N 41°17' W 072°06'612.3
2017-Dec-11 23:30N 41°12' W 072°11'3 2.0
2017-Dec-11 22:10N 41°11' W 072°14'212.3
2017-Dec-11 22:00N 41°12' W 072°13'6 2.8
2017-Dec-11 19:57N 41°16' W 072°07'511.2
2017-Dec-11 19:30N 41°13' W 072°11'4 2.9
2017-Dec-11 18:16N 41°09' W 072°13'3 9.7
2017-Dec-11 17:57N 41°12' W 072°12'8 4.1
2017-Dec-11 16:04N 41°18' W 072°05'111.6
2017-Dec-11 16:00N 41°17' W 072°05'612.9
2017-Dec-11 15:30N 41°13' W 072°11'3 2.9
2017-Dec-11 14:23N 41°10' W 072°13'4 9.2
2017-Dec-11 13:57N 41°13' W 072°11'7 0.6
2017-Dec-11 02:49N 41°18' W 072°05'412.1
2017-Dec-11 02:30N 41°15' W 072°08'612.0
2017-Dec-11 01:59N 41°10' W 072°13'1 1.3
2017-Dec-11 01:23N 41°09' W 072°13'3 8.7
2017-Dec-11 01:00N 41°13' W 072°12'6 3.1
2017-Dec-10 23:03N 41°17' W 072°06'112.9
2017-Dec-10 23:00N 41°16' W 072°06'612.6
2017-Dec-10 22:30N 41°12' W 072°12'3 2.8
2017-Dec-10 21:21N 41°09' W 072°14'4 9.5
2017-Dec-10 20:59N 41°12' W 072°12'6 3.3
2017-Dec-10 19:03N 41°17' W 072°06'211.1
2017-Dec-10 18:54N 41°15' W 072°08'411.1
2017-Dec-10 18:30N 41°12' W 072°12'4 6.5
2017-Dec-10 17:56N 41°09' W 072°14'1 1.7
2017-Dec-10 17:17N 41°10' W 072°13'2 8.5
2017-Dec-10 17:00N 41°12' W 072°12'8 4.4
2017-Dec-10 15:09N 41°18' W 072°05'211.7
2017-Dec-10 14:59N 41°16' W 072°06'613.2
2017-Dec-10 14:30N 41°12' W 072°12'3 6.3
2017-Dec-10 13:59N 41°09' W 072°14'3 3.7
2017-Dec-10 13:06N 41°12' W 072°12'210.0
2017-Dec-10 12:55N 41°13' W 072°10'6 0.5
2017-Dec-10 00:09N 41°18' W 072°05'211.8
2017-Dec-09 23:58N 41°16' W 072°06'613.2
2017-Dec-09 23:30N 41°12' W 072°12'3 2.4
2017-Dec-09 22:23N 41°09' W 072°13'4 9.7
2017-Dec-09 22:00N 41°13' W 072°12'7 4.0
2017-Dec-09 20:10N 41°18' W 072°05'211.5
2017-Dec-09 20:00N 41°16' W 072°06'510.8
2017-Dec-09 19:30N 41°12' W 072°11'4 3.4
2017-Dec-09 18:19N 41°09' W 072°14'3 9.4
2017-Dec-09 17:59N 41°12' W 072°12'713.5
2017-Dec-09 17:30N 41°17' W 072°06'2 1.3
2017-Dec-09 16:12N 41°18' W 072°05'211.3
2017-Dec-09 16:00N 41°16' W 072°06'611.2
2017-Dec-09 15:27N 41°12' W 072°12'3 2.9
2017-Dec-09 14:22N 41°09' W 072°14'4 9.5
2017-Dec-09 13:58N 41°13' W 072°12'7 0.6
2017-Dec-09 01:50N 41°18' W 072°05'411.9
2017-Dec-09 01:30N 41°15' W 072°08'612.4
2017-Dec-09 01:00N 41°10' W 072°13'1 2.0
2017-Dec-09 00:27N 41°09' W 072°14'4 9.5
2017-Dec-09 00:00N 41°13' W 072°11'7 3.6
2017-Dec-08 22:03N 41°18' W 072°05'112.3
2017-Dec-08 21:57N 41°17' W 072°06'613.5
2017-Dec-08 21:30N 41°13' W 072°11'4 3.4
2017-Dec-08 20:21N 41°09' W 072°14'510.5
2017-Dec-08 19:54N 41°13' W 072°11'5 2.7
2017-Dec-08 18:02N 41°17' W 072°06'012.6
2017-Dec-08 18:00N 41°16' W 072°07'510.8
2017-Dec-08 17:30N 41°12' W 072°11'3 1.8
2017-Dec-08 16:08N 41°11' W 072°14'313.2
2017-Dec-08 15:52N 41°14' W 072°11'6 3.9
2017-Dec-08 14:12N 41°18' W 072°05'211.4
2017-Dec-08 14:00N 41°16' W 072°06'612.2
2017-Dec-08 13:29N 41°12' W 072°12'3 2.5
2017-Dec-08 12:22N 41°09' W 072°14'  
Track history (hours):
 
Tides and Currents Weather Stations Pressure Air Temp Water Temp Dewpoint Dewpoint Depression Visibility Wind Speed Wind Dir Waves Ship Positions

Cape Henlopen

Owner: CROSS SOUND FERRY SERV INC, NEW LONDON, CT. More information available from US FCC via Universal Licensing System and Coast Guard Vessel Documentation Center.

Last reported at 2017-Dec-18 02:51 UTC. Time now 2017-Dec-18 05:15 UTC.
Position N 41°18' W 072°05'.

Length 94 m; draft 2.7 m.

Type: Passenger vessel. MMSI: 367354360.

Date/timePositionNaut miles runAvg speedWind from/ knotsBaromVisibWave heightAir tempDewpointWater temp
2017-Dec-18 02:51N 41°18' W 072°05'411.8
2017-Dec-18 02:30N 41°15' W 072°09'511.0
2017-Dec-18 02:01N 41°11' W 072°13'2 2.9
2017-Dec-18 01:29N 41°09' W 072°14'3 5.7
2017-Dec-18 01:00N 41°12' W 072°13'8 4.0
2017-Dec-17 23:03N 41°17' W 072°06'011.0
2017-Dec-17 23:00N 41°17' W 072°06'611.6
2017-Dec-17 22:30N 41°13' W 072°11'4 7.1
2017-Dec-17 21:55N 41°09' W 072°14'1 1.2
2017-Dec-17 21:19N 41°09' W 072°13'3 9.9
2017-Dec-17 21:00N 41°12' W 072°12'7 3.5
2017-Dec-17 18:58N 41°17' W 072°05'613.3
2017-Dec-17 18:29N 41°12' W 072°11'4 8.5
2017-Dec-17 18:01N 41°09' W 072°14'0 0.7
2017-Dec-17 17:23N 41°09' W 072°14'4 9.9
2017-Dec-17 16:59N 41°13' W 072°12'7 3.9
2017-Dec-17 15:07N 41°18' W 072°05'211.7
2017-Dec-17 15:00N 41°17' W 072°06'611.6
2017-Dec-17 14:31N 41°13' W 072°11'4 3.5
2017-Dec-17 13:18N 41°09' W 072°14'3 9.1
2017-Dec-17 13:01N 41°12' W 072°13'9 0.7
2017-Dec-17 00:13N 41°18' W 072°05'311.2
2017-Dec-16 23:56N 41°15' W 072°08'511.0
2017-Dec-16 23:30N 41°12' W 072°12'3 6.9
2017-Dec-16 23:00N 41°09' W 072°14'0 0.8
2017-Dec-16 22:25N 41°09' W 072°14'3 8.1
2017-Dec-16 22:00N 41°12' W 072°12'7 3.2
2017-Dec-16 19:58N 41°17' W 072°06'613.2
2017-Dec-16 19:30N 41°13' W 072°12'4 7.3
2017-Dec-16 18:58N 41°09' W 072°14'1 2.3
2017-Dec-16 18:30N 41°10' W 072°13'4 7.6
2017-Dec-16 17:58N 41°13' W 072°10'5 2.7
2017-Dec-16 16:06N 41°17' W 072°06'212.7
2017-Dec-16 15:57N 41°16' W 072°07'612.5
2017-Dec-16 15:30N 41°12' W 072°13'3 2.8
2017-Dec-16 14:35N 41°09' W 072°12'411.3
2017-Dec-16 14:13N 41°11' W 072°07'210.0
2017-Dec-16 14:00N 41°13' W 072°06'4 8.2
2017-Dec-16 13:30N 41°17' W 072°06'2 0.2
2017-Dec-16 02:00N 41°19' W 072°05'611.4
2017-Dec-16 01:28N 41°14' W 072°10'510.0
2017-Dec-16 01:00N 41°10' W 072°13'1 1.4
2017-Dec-16 00:16N 41°09' W 072°13'3 9.7
2017-Dec-16 00:00N 41°12' W 072°13'9 5.3
2017-Dec-15 22:13N 41°19' W 072°05'211.1
2017-Dec-15 22:00N 41°17' W 072°06'611.5
2017-Dec-15 21:30N 41°12' W 072°11'3 2.6
2017-Dec-15 20:18N 41°10' W 072°13'3 9.6
2017-Dec-15 19:59N 41°12' W 072°12'7 3.8
2017-Dec-15 18:02N 41°18' W 072°05'111.7
2017-Dec-15 17:57N 41°17' W 072°06'713.5
2017-Dec-15 17:27N 41°12' W 072°12'3 2.9
2017-Dec-15 16:25N 41°09' W 072°13'4 9.3
2017-Dec-15 15:59N 41°13' W 072°11'3 1.5
2017-Dec-15 13:52N 41°15' W 072°08'411.9
2017-Dec-15 13:30N 41°12' W 072°12'4 6.4
2017-Dec-15 12:56N 41°09' W 072°14'0 0.0
2017-Dec-15 12:30N 41°09' W 072°14'1 0.1
2017-Dec-15 02:06N 41°09' W 072°13'11 5.7
2017-Dec-15 00:13N 41°18' W 072°05'11 1.9
2017-Dec-14 18:20N 41°09' W 072°14'3 9.5
2017-Dec-14 18:00N 41°12' W 072°12'7 3.4
2017-Dec-14 15:59N 41°17' W 072°05'10 6.0
2017-Dec-14 14:20N 41°09' W 072°14'510.1
2017-Dec-14 13:53N 41°13' W 072°11'4 0.3
2017-Dec-14 00:00N 41°15' W 072°07'2 0.4
2017-Dec-13 20:09N 41°17' W 072°06'411.9
2017-Dec-13 19:49N 41°14' W 072°10'1 0.3
2017-Dec-13 15:45N 41°14' W 072°09'313.8
2017-Dec-13 15:30N 41°12' W 072°12'8 0.5
2017-Dec-13 00:09N 41°18' W 072°05'312.0
2017-Dec-12 23:53N 41°16' W 072°08'411.3
2017-Dec-12 23:29N 41°12' W 072°12'2 1.7
2017-Dec-12 22:09N 41°11' W 072°14'212.7
2017-Dec-12 21:59N 41°12' W 072°12'8 4.1
2017-Dec-12 20:09N 41°18' W 072°05'211.4
2017-Dec-12 20:00N 41°16' W 072°06'611.5
2017-Dec-12 19:30N 41°12' W 072°12'3 3.0
2017-Dec-12 18:23N 41°09' W 072°14'4 9.5
2017-Dec-12 17:57N 41°13' W 072°11'6 2.8
2017-Dec-12 15:56N 41°17' W 072°06'613.5
2017-Dec-12 15:31N 41°13' W 072°11'4 3.3
2017-Dec-12 14:24N 41°09' W 072°13'4 9.1
2017-Dec-12 14:00N 41°13' W 072°11'7 0.5
2017-Dec-12 00:07N 41°18' W 072°05'212.5
2017-Dec-11 23:59N 41°17' W 072°06'612.3
2017-Dec-11 23:30N 41°12' W 072°11'3 2.0
2017-Dec-11 22:10N 41°11' W 072°14'212.3
2017-Dec-11 22:00N 41°12' W 072°13'6 2.8
2017-Dec-11 19:57N 41°16' W 072°07'511.2
2017-Dec-11 19:30N 41°13' W 072°11'4 2.9
2017-Dec-11 18:16N 41°09' W 072°13'3 9.7
2017-Dec-11 17:57N 41°12' W 072°12'8 4.1
2017-Dec-11 16:04N 41°18' W 072°05'111.6
2017-Dec-11 16:00N 41°17' W 072°05'612.9
2017-Dec-11 15:30N 41°13' W 072°11'3 2.9
2017-Dec-11 14:23N 41°10' W 072°13'4 9.2
2017-Dec-11 13:57N 41°13' W 072°11'7 0.6
2017-Dec-11 02:49N 41°18' W 072°05'412.1
2017-Dec-11 02:30N 41°15' W 072°08'612.0
2017-Dec-11 01:59N 41°10' W 072°13'1 1.3
2017-Dec-11 01:23N 41°09' W 072°13'3 8.7
2017-Dec-11 01:00N 41°13' W 072°12'6 3.1
2017-Dec-10 23:03N 41°17' W 072°06'112.9
2017-Dec-10 23:00N 41°16' W 072°06'612.6
2017-Dec-10 22:30N 41°12' W 072°12'3 2.8
2017-Dec-10 21:21N 41°09' W 072°14'4 9.5
2017-Dec-10 20:59N 41°12' W 072°12'6 3.3
2017-Dec-10 19:03N 41°17' W 072°06'211.1
2017-Dec-10 18:54N 41°15' W 072°08'411.1
2017-Dec-10 18:30N 41°12' W 072°12'4 6.5
2017-Dec-10 17:56N 41°09' W 072°14'1 1.7
2017-Dec-10 17:17N 41°10' W 072°13'2 8.5
2017-Dec-10 17:00N 41°12' W 072°12'8 4.4
2017-Dec-10 15:09N 41°18' W 072°05'211.7
2017-Dec-10 14:59N 41°16' W 072°06'613.2
2017-Dec-10 14:30N 41°12' W 072°12'3 6.3
2017-Dec-10 13:59N 41°09' W 072°14'3 3.7
2017-Dec-10 13:06N 41°12' W 072°12'210.0
2017-Dec-10 12:55N 41°13' W 072°10'6 0.5
2017-Dec-10 00:09N 41°18' W 072°05'211.8
2017-Dec-09 23:58N 41°16' W 072°06'613.2
2017-Dec-09 23:30N 41°12' W 072°12'3 2.4
2017-Dec-09 22:23N 41°09' W 072°13'4 9.7
2017-Dec-09 22:00N 41°13' W 072°12'7 4.0
2017-Dec-09 20:10N 41°18' W 072°05'211.5
2017-Dec-09 20:00N 41°16' W 072°06'510.8
2017-Dec-09 19:30N 41°12' W 072°11'4 3.4
2017-Dec-09 18:19N 41°09' W 072°14'3 9.4
2017-Dec-09 17:59N 41°12' W 072°12'713.5
2017-Dec-09 17:30N 41°17' W 072°06'2 1.3
2017-Dec-09 16:12N 41°18' W 072°05'211.3
2017-Dec-09 16:00N 41°16' W 072°06'611.2
2017-Dec-09 15:27N 41°12' W 072°12'3 2.9
2017-Dec-09 14:22N 41°09' W 072°14'4 9.5
2017-Dec-09 13:58N 41°13' W 072°12'7 0.6
2017-Dec-09 01:50N 41°18' W 072°05'411.9
2017-Dec-09 01:30N 41°15' W 072°08'612.4
2017-Dec-09 01:00N 41°10' W 072°13'1 2.0
2017-Dec-09 00:27N 41°09' W 072°14'4 9.5
2017-Dec-09 00:00N 41°13' W 072°11'7 3.6
2017-Dec-08 22:03N 41°18' W 072°05'112.3
2017-Dec-08 21:57N 41°17' W 072°06'613.5
2017-Dec-08 21:30N 41°13' W 072°11'4 3.4
2017-Dec-08 20:21N 41°09' W 072°14'510.5
2017-Dec-08 19:54N 41°13' W 072°11'5 2.7
2017-Dec-08 18:02N 41°17' W 072°06'012.6
2017-Dec-08 18:00N 41°16' W 072°07'510.8
2017-Dec-08 17:30N 41°12' W 072°11'3 1.8
2017-Dec-08 16:08N 41°11' W 072°14'313.2
2017-Dec-08 15:52N 41°14' W 072°11'6 3.9
2017-Dec-08 14:12N 41°18' W 072°05'211.4
2017-Dec-08 14:00N 41°16' W 072°06'612.2
2017-Dec-08 13:29N 41°12' W 072°12'3 2.5
2017-Dec-08 12:22N 41°09' W 072°14'  

Dump ship's entire track history